Time;durP1;ratioP1;P1;durP2;ratioP2;P2;SDS_P1;SDS_P2;PMS_P1;PMS_P2;Temp;Humidity;BMP_temperature;BMP_pressure;BME280_temperature;BME280_humidity;BME280_pressure;Samples;Min_cycle;Max_cycle;Signal;HPM_P1;HPM_P2
2022/06/02 00:01:15;;;;;;;11.88;10.85;;;;;;;9.57;89.51;101072.44;7394127;19;20383;-68
2022/06/02 00:03:49;;;;;;;13.10;11.73;;;;;;;9.57;89.69;101077.69;7394743;19;20023;-68
2022/06/02 00:06:32;;;;;;;12.85;11.65;;;;;;;9.56;89.46;101084.66;7393423;19;20018;-67
2022/06/02 00:09:10;;;;;;;13.35;12.05;;;;;;;9.55;90.13;101090.78;7392731;19;20419;-67
2022/06/02 00:12:00;;;;;;;12.43;11.30;;;;;;;9.55;89.61;101085.53;7395058;19;20022;-67
2022/06/02 00:14:39;;;;;;;12.90;11.70;;;;;;;9.56;89.53;101091.66;7393032;19;20043;-67
2022/06/02 00:17:14;;;;;;;13.48;12.18;;;;;;;9.56;89.29;101097.75;7392122;19;20367;-68
2022/06/02 00:19:49;;;;;;;12.57;11.30;;;;;;;9.57;89.28;101088.16;7394390;19;20036;-67
2022/06/02 00:22:28;;;;;;;12.38;11.15;;;;;;;9.55;89.49;101092.53;7394365;19;20010;-67
2022/06/02 00:25:03;;;;;;;12.88;11.57;;;;;;;9.52;89.38;101089.97;7391836;19;20501;-68
2022/06/02 00:27:41;;;;;;;12.35;11.15;;;;;;;9.51;89.29;101094.34;7394169;19;20022;-68
2022/06/02 00:30:24;;;;;;;13.07;11.88;;;;;;;9.48;89.40;101094.38;7394062;19;20035;-67
2022/06/02 00:33:04;;;;;;;11.80;10.75;;;;;;;9.45;89.44;101100.53;7391404;19;20019;-67
2022/06/02 00:35:38;;;;;;;12.30;11.02;;;;;;;9.42;89.25;101102.31;7393337;19;20039;-68
2022/06/02 00:38:18;;;;;;;12.77;11.52;;;;;;;9.40;89.37;101117.16;7391453;19;20064;-67
2022/06/02 00:40:47;;;;;;;12.25;11.00;;;;;;;9.36;89.30;101105.00;7391647;19;20011;-67
2022/06/02 00:43:34;;;;;;;12.50;11.05;;;;;;;9.28;89.59;101094.59;7390907;19;20455;-68
2022/06/02 00:46:10;;;;;;;12.98;11.80;;;;;;;9.27;89.44;101109.44;7392660;19;20035;-67
2022/06/02 00:48:51;;;;;;;12.50;11.23;;;;;;;9.23;89.54;101102.50;7398144;19;20014;-67
2022/06/02 00:51:32;;;;;;;11.98;10.88;;;;;;;9.20;89.62;101110.41;7398294;19;20023;-67
2022/06/02 00:59:55;;;;;;;12.45;11.35;;;;;;;9.08;89.55;101119.22;7400170;19;20719;-67
2022/06/02 01:02:24;;;;;;;12.05;10.80;;;;;;;9.05;89.50;101123.59;7400145;19;20035;-67
2022/06/02 01:04:53;;;;;;;12.73;11.45;;;;;;;9.00;89.79;101126.28;7397221;19;20393;-67
2022/06/02 01:07:29;;;;;;;12.90;11.60;;;;;;;8.97;89.95;101128.91;7397652;19;20035;-67
2022/06/02 01:10:19;;;;;;;14.10;11.73;;;;;;;8.92;89.88;101139.44;7400241;19;20014;-67
2022/06/02 01:13:24;;;;;;;12.68;11.48;;;;;;;8.87;89.91;101146.47;7400892;19;20041;-67
2022/06/02 01:16:02;;;;;;;13.75;12.25;;;;;;;8.83;90.39;101154.34;7398495;19;20477;-67
2022/06/02 01:18:40;;;;;;;13.75;12.25;;;;;;;8.78;90.49;101146.53;7399951;19;20023;-68
2022/06/02 01:21:27;;;;;;;12.77;11.57;;;;;;;8.73;90.28;101148.31;7397602;19;20018;-67
2022/06/02 01:24:28;;;;;;;14.52;12.80;;;;;;;8.68;90.38;101147.47;7397441;19;20032;-67
2022/06/02 01:27:30;;;;;;;13.45;12.18;;;;;;;8.65;90.25;101153.59;7397138;19;20477;-68
2022/06/02 01:30:23;;;;;;;14.27;12.30;;;;;;;8.61;90.29;101159.75;7397356;19;20018;-68
2022/06/02 01:33:05;;;;;;;13.90;12.55;;;;;;;8.58;90.51;101159.75;7399472;19;20027;-67
2022/06/02 01:35:41;;;;;;;13.40;11.95;;;;;;;8.56;90.38;101161.53;7396815;19;20018;-68
2022/06/02 01:38:17;;;;;;;14.00;12.60;;;;;;;8.51;90.45;101169.38;7397181;19;20018;-67
2022/06/02 01:40:59;;;;;;;13.57;12.23;;;;;;;8.48;90.55;101169.41;7398428;19;20505;-67
2022/06/02 01:43:37;;;;;;;13.43;12.13;;;;;;;8.44;90.93;101165.03;7399059;19;20014;-67
2022/06/02 01:46:42;;;;;;;19.80;12.40;;;;;;;8.41;90.81;101165.06;7396702;19;20022;-68
2022/06/02 01:49:34;;;;;;;14.07;12.63;;;;;;;8.36;90.75;101162.47;7395929;19;20477;-67
2022/06/02 01:52:41;;;;;;;13.82;12.38;;;;;;;8.32;90.76;101164.22;7396036;19;20014;-68
2022/06/02 01:55:21;;;;;;;15.23;13.73;;;;;;;8.27;90.96;101166.00;7396868;19;20019;-67
2022/06/02 01:58:05;;;;;;;13.88;12.57;;;;;;;8.24;90.90;101168.66;7397492;19;20035;-67
2022/06/02 02:00:35;;;;;;;13.93;12.52;;;;;;;8.19;91.19;101169.53;7396569;19;20022;-67
2022/06/02 02:03:13;;;;;;;14.48;13.07;;;;;;;8.16;90.68;101165.19;7396218;19;20019;-67
2022/06/02 02:06:03;;;;;;;13.40;11.98;;;;;;;8.13;90.93;101175.66;7396403;19;20138;-67
2022/06/02 02:08:45;;;;;;;14.73;13.23;;;;;;;8.08;91.04;101177.44;7395891;19;20022;-67
2022/06/02 02:11:30;;;;;;;14.63;13.13;;;;;;;8.03;91.19;101174.84;7398953;19;20022;-68
2022/06/02 02:14:07;;;;;;;15.07;13.00;;;;;;;8.02;91.16;101180.06;7397506;19;20022;-68
2022/06/02 02:16:50;;;;;;;14.40;12.95;;;;;;;8.00;91.09;101169.63;7397339;19;20046;-68
2022/06/02 02:19:27;;;;;;;14.77;13.18;;;;;;;7.97;90.95;101175.75;7397787;19;20031;-68
2022/06/02 02:22:06;;;;;;;15.02;13.48;;;;;;;7.95;91.09;101184.47;7397785;19;20014;-67
2022/06/02 02:24:47;;;;;;;15.05;13.45;;;;;;;7.91;91.14;101183.59;7395083;19;20510;-67
2022/06/02 02:27:23;;;;;;;15.07;13.48;;;;;;;7.89;91.08;101193.19;7395318;19;20019;-67
2022/06/02 02:30:03;;;;;;;14.63;13.15;;;;;;;7.85;91.16;101186.22;7395390;19;20035;-67
2022/06/02 02:32:42;;;;;;;15.60;14.00;;;;;;;7.82;91.01;101181.88;7395569;19;20044;-66
2022/06/02 02:35:15;;;;;;;16.30;14.70;;;;;;;7.78;91.42;101190.59;7394837;19;20440;-66
2022/06/02 02:37:52;;;;;;;14.60;12.98;;;;;;;7.75;91.04;101190.59;7394818;19;20026;-66
2022/06/02 02:40:27;;;;;;;16.88;14.68;;;;;;;7.72;91.15;101193.25;7396819;19;20014;-66
2022/06/02 02:43:00;;;;;;;16.40;14.45;;;;;;;7.70;91.13;101191.50;7394977;19;20395;-66
2022/06/02 02:45:44;;;;;;;16.00;14.30;;;;;;;7.66;91.11;101194.13;7396737;19;20032;-67
2022/06/02 02:48:23;;;;;;;15.75;13.85;;;;;;;7.65;91.10;101196.72;7396679;19;20037;-66
2022/06/02 02:50:58;;;;;;;17.08;14.80;;;;;;;7.63;90.99;101198.47;7396091;19;20382;-66
2022/06/02 02:53:35;;;;;;;16.10;14.43;;;;;;;7.62;91.13;101204.56;7395194;19;20032;-66
2022/06/02 02:56:12;;;;;;;17.15;15.38;;;;;;;7.61;90.93;101206.31;7395461;19;20414;-66
2022/06/02 02:58:45;;;;;;;15.75;14.15;;;;;;;7.59;91.06;101199.34;7395128;19;20022;-66
2022/06/02 03:01:21;;;;;;;17.77;15.88;;;;;;;7.59;90.99;101202.81;7396440;19;20018;-66
2022/06/02 03:04:01;;;;;;;16.73;14.98;;;;;;;7.56;91.22;101210.69;7395685;19;20505;-66
2022/06/02 03:06:34;;;;;;;16.95;15.23;;;;;;;7.55;91.32;101211.53;7395187;19;20018;-66
2022/06/02 03:09:12;;;;;;;15.93;14.23;;;;;;;7.52;91.07;101208.06;7393095;19;20074;-66
2022/06/02 03:14:40;;;;;;;16.85;15.07;;;;;;;7.48;91.02;101215.03;7394058;19;20007;-66
2022/06/02 03:17:22;;;;;;;16.67;14.95;;;;;;;7.47;91.36;101223.75;7394340;19;20018;-66
2022/06/02 03:20:00;;;;;;;17.15;15.32;;;;;;;7.45;91.25;101228.97;7394409;19;20035;-66
2022/06/02 03:22:48;;;;;;;16.10;14.40;;;;;;;7.44;91.50;101234.19;7394356;19;20039;-66
2022/06/02 03:25:31;;;;;;;19.98;16.08;;;;;;;7.43;91.21;101241.16;7395242;19;20390;-67
2022/06/02 03:28:13;;;;;;;18.45;16.48;;;;;;;7.42;91.30;101241.13;7395449;19;20022;-67
2022/06/02 03:30:54;;;;;;;17.75;15.85;;;;;;;7.43;91.11;101245.50;7393621;19;20022;-67
2022/06/02 03:33:39;;;;;;;18.10;16.20;;;;;;;7.44;90.93;101242.03;7392752;19;20460;-67
2022/06/02 03:36:17;;;;;;;18.10;16.27;;;;;;;7.43;90.98;101246.38;7392953;19;20026;-67
2022/06/02 03:38:58;;;;;;;17.38;15.50;;;;;;;7.44;90.93;101247.25;7392848;19;20071;-67
2022/06/02 03:41:41;;;;;;;18.42;16.38;;;;;;;7.41;91.32;101248.13;7395565;19;20018;-67
2022/06/02 03:44:18;;;;;;;18.85;16.88;;;;;;;7.40;91.46;101254.19;7392766;19;20019;-67
2022/06/02 03:47:12;;;;;;;20.33;17.67;;;;;;;7.40;91.34;101251.59;7392743;19;20035;-67
2022/06/02 03:50:09;;;;;;;21.58;19.27;;;;;;;7.40;91.33;101248.13;7395154;19;20028;-67
2022/06/02 03:52:50;;;;;;;25.33;22.65;;;;;;;7.40;91.16;101251.59;7394352;19;20021;-67
2022/06/02 03:55:32;;;;;;;27.95;22.02;;;;;;;7.42;91.36;101257.69;7392906;19;20485;-67
2022/06/02 03:58:18;;;;;;;23.40;20.52;;;;;;;7.43;91.57;101258.53;7392884;19;20023;-66
2022/06/02 04:00:51;;;;;;;23.08;18.90;;;;;;;7.45;91.89;101264.66;7394442;19;20019;-67
2022/06/02 04:03:38;;;;;;;20.85;18.63;;;;;;;7.45;92.09;101265.50;7394500;19;20030;-68
2022/06/02 04:06:23;;;;;;;21.80;19.02;;;;;;;7.46;91.88;101267.25;7392099;19;20019;-68
2022/06/02 04:09:04;;;;;;;24.65;17.92;;;;;;;7.48;92.03;101267.25;7392095;19;20022;-68
2022/06/02 04:14:42;;;;;;;23.27;19.88;;;;;;;7.53;92.13;101278.56;7393655;19;20025;-66
2022/06/02 04:17:19;;;;;;;23.50;20.25;;;;;;;7.56;92.73;101285.56;7391523;19;20433;-66
2022/06/02 04:22:56;;;;;;;23.73;19.50;;;;;;;7.63;92.48;101295.97;7401552;19;20373;-67
2022/06/02 04:25:41;;;;;;;23.65;19.52;;;;;;;7.65;92.54;101304.66;7400890;19;20036;-67
2022/06/02 04:28:17;;;;;;;26.35;20.65;;;;;;;7.71;92.20;101302.91;7398019;19;20018;-67
2022/06/02 04:31:01;;;;;;;23.50;20.20;;;;;;;7.72;92.69;101296.84;7400884;19;20010;-66
2022/06/02 04:33:35;;;;;;;23.45;20.15;;;;;;;7.78;92.59;101305.53;7397681;19;20018;-67
2022/06/02 04:36:15;;;;;;;26.90;21.95;;;;;;;7.82;92.70;101303.78;7397616;19;20018;-67
2022/06/02 04:38:54;;;;;;;22.88;19.60;;;;;;;7.87;92.82;101309.88;7400574;19;20018;-67
2022/06/02 04:41:29;;;;;;;25.02;21.10;;;;;;;7.92;93.21;101315.09;7397392;19;20019;-66
2022/06/02 04:44:07;;;;;;;24.67;20.75;;;;;;;7.95;93.17;101318.56;7399784;19;20484;-66
2022/06/02 04:46:51;;;;;;;26.50;21.13;;;;;;;8.01;93.02;101319.44;7398178;19;20018;-67
2022/06/02 04:49:26;;;;;;;24.52;21.00;;;;;;;8.05;92.94;101323.78;7397529;19;20023;-67
2022/06/02 04:52:00;;;;;;;22.92;19.73;;;;;;;8.10;93.19;101333.38;7400047;19;20018;-66
2022/06/02 04:54:40;;;;;;;23.70;20.55;;;;;;;8.15;92.79;101321.16;7397223;19;20011;-66
2022/06/02 04:57:18;;;;;;;25.45;20.48;;;;;;;8.22;93.04;101326.38;7396964;19;20019;-65
2022/06/02 04:59:56;;;;;;;23.67;20.58;;;;;;;8.28;92.80;101329.81;7397135;19;20022;-66
2022/06/02 05:02:36;;;;;;;24.90;21.33;;;;;;;8.34;93.05;101318.50;7398520;19;20022;-67
2022/06/02 05:05:15;;;;;;;24.67;20.67;;;;;;;8.40;93.10;101328.03;7396470;19;20112;-66
2022/06/02 05:08:02;;;;;;;25.48;20.85;;;;;;;8.47;93.12;101332.44;7395054;19;20526;-67
2022/06/02 05:10:41;;;;;;;26.17;20.88;;;;;;;8.55;93.76;101335.00;7398512;19;20035;-67
2022/06/02 05:13:21;;;;;;;24.27;20.33;;;;;;;8.61;93.02;101334.97;7400690;19;20098;-66
2022/06/02 05:16:11;;;;;;;23.80;20.80;;;;;;;8.68;93.11;101336.72;7395077;19;20502;-66
2022/06/02 05:19:17;;;;;;;40.10;21.30;;;;;;;8.72;92.63;101337.53;7397691;19;20025;-67
2022/06/02 05:22:11;;;;;;;24.08;20.17;;;;;;;8.81;92.36;101342.75;7394183;19;20019;-69
2022/06/02 05:25:20;;;;;;;19.60;17.50;;;;;;;8.88;92.32;101349.66;7395920;19;20454;-68
2022/06/02 05:28:09;;;;;;;22.58;17.30;;;;;;;8.94;92.39;101344.41;7395593;19;20010;-68
2022/06/02 05:30:54;;;;;;;24.90;18.42;;;;;;;9.02;91.89;101343.50;7396074;19;20018;-68
2022/06/02 05:33:44;;;;;;;20.10;17.42;;;;;;;9.10;91.92;101346.97;7396111;19;20032;-68
2022/06/02 05:36:31;;;;;;;20.40;17.48;;;;;;;9.16;91.30;101352.13;7396328;19;20022;-67
2022/06/02 05:39:10;;;;;;;20.17;17.80;;;;;;;9.21;91.19;101353.00;7397255;19;20024;-67
2022/06/02 05:41:51;;;;;;;20.30;17.17;;;;;;;9.28;91.02;101353.81;7394884;19;20014;-66
2022/06/02 05:44:32;;;;;;;18.75;16.73;;;;;;;9.33;91.38;101348.56;7395968;19;20018;-66
2022/06/02 05:47:23;;;;;;;21.02;17.55;;;;;;;9.40;91.19;101343.25;7394903;19;20036;-67
2022/06/02 05:49:58;;;;;;;27.30;17.23;;;;;;;9.48;90.88;101353.69;7396100;19;20422;-67
2022/06/02 05:52:37;;;;;;;19.48;17.38;;;;;;;9.53;90.48;101357.13;7397444;19;20346;-68
2022/06/02 05:55:26;;;;;;;21.90;16.55;;;;;;;9.60;90.47;101361.47;7395478;19;20478;-68
2022/06/02 05:58:06;;;;;;;20.20;16.70;;;;;;;9.67;90.33;101361.38;7397411;19;20378;-67
2022/06/02 06:00:45;;;;;;;17.92;16.02;;;;;;;9.75;90.31;101370.06;7397869;19;20022;-67
2022/06/02 06:03:32;;;;;;;17.15;15.40;;;;;;;9.81;90.04;101376.97;7396268;19;20330;-67
2022/06/02 06:06:06;;;;;;;17.00;14.68;;;;;;;9.88;89.77;101370.81;7396155;19;20366;-68
2022/06/02 06:08:51;;;;;;;21.02;16.23;;;;;;;9.97;89.63;101370.75;7394857;19;20485;-68
2022/06/02 06:11:42;;;;;;;24.65;16.27;;;;;;;10.04;89.51;101376.81;7395711;19;20018;-68
2022/06/02 06:14:18;;;;;;;21.70;15.82;;;;;;;10.11;89.31;101383.72;7396604;19;20031;-68
2022/06/02 06:16:55;;;;;;;17.27;15.45;;;;;;;10.17;89.23;101375.78;7393751;19;20363;-68
2022/06/02 06:19:52;;;;;;;16.17;14.45;;;;;;;10.27;88.87;101379.19;7395290;19;20047;-68
2022/06/02 06:22:37;;;;;;;17.05;14.52;;;;;;;10.33;88.15;101383.50;7394521;19;20015;-67
2022/06/02 06:25:20;;;;;;;16.58;14.43;;;;;;;10.40;87.86;101382.56;7394219;19;20506;-67
2022/06/02 06:28:01;;;;;;;15.55;13.90;;;;;;;10.46;87.87;101385.13;7394945;19;20018;-68
2022/06/02 06:30:39;;;;;;;16.08;13.65;;;;;;;10.55;87.58;101386.78;7396973;19;20086;-68
2022/06/02 06:33:17;;;;;;;13.70;12.38;;;;;;;10.63;87.24;101381.44;7396677;19;20022;-69
2022/06/02 06:36:00;;;;;;;15.20;13.70;;;;;;;10.77;86.90;101395.28;7393711;19;20015;-65
2022/06/02 06:38:41;;;;;;;14.00;12.18;;;;;;;10.88;86.04;101393.41;7396038;19;20469;-68
2022/06/02 06:41:39;;;;;;;12.30;10.93;;;;;;;10.98;84.25;101404.66;7396011;19;20019;-67
2022/06/02 06:44:17;;;;;;;13.02;11.55;;;;;;;11.07;84.72;101396.66;7394935;19;20399;-67
2022/06/02 06:46:52;;;;;;;12.20;11.00;;;;;;;11.18;83.88;101406.13;7394851;19;20023;-67
2022/06/02 06:49:26;;;;;;;12.80;11.50;;;;;;;11.27;83.85;101405.16;7395520;19;20018;-66
2022/06/02 06:52:09;;;;;;;11.65;10.45;;;;;;;11.32;82.49;101405.94;7394736;19;20022;-68
2022/06/02 06:54:49;;;;;;;11.80;10.60;;;;;;;11.35;82.68;101413.81;7394416;19;20026;-66
2022/06/02 06:57:31;;;;;;;12.75;11.55;;;;;;;11.43;82.79;101411.91;7394377;19;20034;-67
2022/06/02 07:00:06;;;;;;;13.68;11.52;;;;;;;11.49;82.27;101424.13;7396116;19;20014;-67
2022/06/02 07:02:50;;;;;;;11.10;10.02;;;;;;;11.53;81.77;101420.53;7393838;19;20035;-67
2022/06/02 07:05:24;;;;;;;11.70;10.55;;;;;;;11.58;81.88;101421.34;7394585;19;20027;-67
2022/06/02 07:07:58;;;;;;;;;;;;;;;11.60;80.32;101427.44;7397370;19;20422;-67
2022/06/02 07:10:34;;;;;;;10.15;9.10;;;;;;;11.66;81.00;101416.81;7395944;19;19923;-66
2022/06/02 07:13:14;;;;;;;10.77;9.77;;;;;;;11.74;80.61;101416.72;7395126;19;20022;-67
2022/06/02 07:15:49;;;;;;;11.80;8.93;;;;;;;11.79;80.19;101420.16;7392947;19;20465;-67
2022/06/02 07:18:31;;;;;;;10.98;9.30;;;;;;;11.83;78.77;101420.97;7394998;19;20018;-67
2022/06/02 07:21:07;;;;;;;12.68;9.95;;;;;;;11.84;79.58;101425.31;7394724;19;20099;-67
2022/06/02 07:23:51;;;;;;;11.80;9.65;;;;;;;11.88;80.03;101424.38;7392658;19;20018;-67
2022/06/02 07:26:31;;;;;;;12.20;9.98;;;;;;;11.94;79.55;101426.03;7393175;19;20035;-67
2022/06/02 07:29:12;;;;;;;11.07;9.90;;;;;;;12.00;77.60;101425.97;7394841;19;20422;-67
2022/06/02 07:32:05;;;;;;;9.40;8.30;;;;;;;12.09;78.15;101431.06;7395086;19;20036;-68
2022/06/02 07:34:53;;;;;;;9.88;8.75;;;;;;;12.15;76.51;101430.97;7394988;19;20018;-68
2022/06/02 07:37:35;;;;;;;11.05;8.38;;;;;;;12.22;75.40;101440.50;7392831;19;20035;-68
2022/06/02 07:40:21;;;;;;;7.97;7.25;;;;;;;12.29;76.55;101433.34;7394970;19;20031;-67
2022/06/02 07:43:17;;;;;;;8.35;7.13;;;;;;;12.38;73.95;101438.47;7393616;19;20026;-68
2022/06/02 07:45:57;;;;;;;9.95;7.18;;;;;;;12.51;73.31;101451.38;7393548;19;20498;-66
2022/06/02 07:48:41;;;;;;;7.53;6.47;;;;;;;12.58;74.47;101446.88;7394771;19;20018;-67
2022/06/02 07:51:19;;;;;;;8.30;6.78;;;;;;;12.68;73.74;101451.06;7395064;19;20041;-68
2022/06/02 07:54:13;;;;;;;8.23;7.07;;;;;;;12.77;72.94;101450.03;7393687;19;20014;-67
2022/06/02 07:56:54;;;;;;;6.72;6.10;;;;;;;12.87;69.87;101460.31;7397164;19;20022;-67
2022/06/02 07:59:37;;;;;;;8.50;6.50;;;;;;;12.97;70.75;101454.91;7398682;19;20493;-67
2022/06/02 08:02:30;;;;;;;8.23;6.10;;;;;;;13.08;71.73;101457.28;7399330;19;20022;-69
2022/06/02 08:05:10;;;;;;;7.07;5.82;;;;;;;13.17;69.75;101467.66;7398184;19;20481;-66
2022/06/02 08:07:49;;;;;;;7.00;6.03;;;;;;;13.26;70.91;101456.06;7402059;19;20023;-67
2022/06/02 08:10:27;;;;;;;7.07;6.05;;;;;;;13.33;70.96;101463.78;7399015;19;20015;-67
2022/06/02 08:13:05;;;;;;;7.25;5.22;;;;;;;13.39;69.59;101457.53;7401619;19;20035;-67
2022/06/02 08:15:41;;;;;;;6.22;5.00;;;;;;;13.45;69.41;101467.09;7400620;19;20419;-67
2022/06/02 08:18:35;;;;;;;4.85;4.35;;;;;;;13.45;67.08;101467.94;7398841;19;20024;-67
2022/06/02 08:21:18;;;;;;;4.93;4.43;;;;;;;13.54;67.95;101466.88;7400845;19;20035;-68
2022/06/02 08:24:04;;;;;;;10.52;5.45;;;;;;;13.61;66.87;101465.84;7400349;19;20035;-68
2022/06/02 08:26:42;;;;;;;9.93;4.60;;;;;;;13.67;68.03;101462.19;7399230;19;20546;-67
2022/06/02 08:29:19;;;;;;;4.93;4.43;;;;;;;13.72;67.14;101470.00;7401124;19;20035;-68
2022/06/02 08:32:02;;;;;;;5.28;4.40;;;;;;;13.76;67.41;101466.38;7397836;19;20029;-68
2022/06/02 08:34:41;;;;;;;10.52;5.28;;;;;;;13.81;66.18;101475.94;7400563;19;20018;-68
2022/06/02 08:37:29;;;;;;;6.03;4.22;;;;;;;13.86;66.32;101475.81;7397733;19;20027;-70
2022/06/02 08:40:16;;;;;;;6.68;5.13;;;;;;;13.87;65.65;101487.25;7400324;19;20026;-68
2022/06/02 08:43:22;;;;;;;6.53;4.30;;;;;;;13.85;66.46;101477.59;7397764;19;20015;-68
2022/06/02 08:46:36;;;;;;;5.15;4.65;;;;;;;13.81;65.62;101483.84;7398064;19;20023;-68
2022/06/02 08:49:42;;;;;;;6.90;4.35;;;;;;;13.88;66.23;101471.38;7397407;19;20031;-67
2022/06/02 08:52:41;;;;;;;35.65;6.43;;;;;;;13.98;65.97;101474.66;7396941;19;20078;-68
2022/06/02 08:55:53;;;;;;;3.63;3.33;;;;;;;14.09;62.38;101492.84;7396925;19;20392;-68
2022/06/02 08:58:49;;;;;;;5.57;3.40;;;;;;;14.23;62.66;101476.66;7399583;19;20027;-68
2022/06/02 09:01:40;;;;;;;5.95;3.90;;;;;;;14.29;61.75;101490.59;7396581;19;20018;-68
2022/06/02 09:04:40;;;;;;;3.85;3.33;;;;;;;14.36;61.57;101493.09;7399997;19;20021;-68
2022/06/02 09:07:41;;;;;;;3.75;2.92;;;;;;;14.38;61.10;101497.41;7394459;19;20022;-68
2022/06/02 09:10:40;;;;;;;6.53;3.22;;;;;;;14.33;61.34;101488.72;7399233;19;20021;-68
2022/06/02 09:13:24;;;;;;;5.43;3.03;;;;;;;14.29;61.59;101485.31;7396970;19;20028;-68
2022/06/02 09:16:18;;;;;;;3.58;2.70;;;;;;;14.29;58.29;101500.28;7397951;19;20019;-68
2022/06/02 09:19:12;;;;;;;8.27;2.90;;;;;;;14.36;60.61;101493.94;7396518;19;20023;-69
2022/06/02 09:22:02;;;;;;;3.17;2.30;;;;;;;14.45;58.26;101498.13;7398420;19;20025;-68
2022/06/02 09:24:34;;;;;;;6.03;2.38;;;;;;;14.57;61.03;101499.56;7396018;19;20022;-67
2022/06/02 09:27:44;;;;;;;4.88;2.90;;;;;;;14.59;58.21;101495.97;7396582;19;20022;-67
2022/06/02 09:30:17;;;;;;;4.18;2.83;;;;;;;14.58;59.30;101496.88;7395658;19;20022;-68
2022/06/02 09:33:33;;;;;;;5.60;2.15;;;;;;;14.57;56.59;101504.84;7395175;19;20042;-68
2022/06/02 09:35:58;;;;;;;3.53;2.17;;;;;;;14.61;58.70;101495.97;7395689;19;20014;-69
2022/06/02 09:38:42;;;;;;;1.98;1.80;;;;;;;14.65;57.81;101514.34;7397805;19;20018;-69
2022/06/02 09:41:36;;;;;;;3.42;2.10;;;;;;;14.68;56.41;101507.25;7395247;19;20018;-68
2022/06/02 09:44:18;;;;;;;3.72;2.03;;;;;;;14.71;56.06;101509.78;7398395;19;20039;-67
2022/06/02 09:47:16;;;;;;;3.55;2.47;;;;;;;14.80;55.62;101504.28;7396577;19;20035;-70
2022/06/02 09:50:17;;;;;;;4.00;1.73;;;;;;;14.99;57.21;101502.00;7397517;19;20387;-67
2022/06/02 09:53:15;;;;;;;2.80;1.90;;;;;;;15.13;54.04;101514.81;7398194;19;20032;-67
2022/06/02 09:56:00;;;;;;;2.55;1.50;;;;;;;15.17;53.30;101499.75;7397131;19;20398;-67
2022/06/02 09:58:49;;;;;;;3.33;1.60;;;;;;;15.24;54.12;101511.84;7395558;19;20027;-68
2022/06/02 10:01:29;;;;;;;4.07;1.95;;;;;;;15.30;55.88;101516.94;7397634;19;20356;-68
2022/06/02 10:04:28;;;;;;;1.98;1.65;;;;;;;15.30;52.19;101509.03;7398170;19;20022;-69
2022/06/02 10:07:28;;;;;;;2.58;1.33;;;;;;;15.33;50.54;101511.59;7395193;19;20590;-68
2022/06/02 10:10:25;;;;;;;1.83;1.23;;;;;;;15.38;49.12;101514.97;7397564;19;20039;-68
2022/06/02 10:13:17;;;;;;;1.65;1.05;;;;;;;15.45;52.54;101507.72;7394259;19;20496;-67
2022/06/02 10:16:03;;;;;;;2.55;1.45;;;;;;;15.58;51.28;101516.13;7396764;19;20022;-68
2022/06/02 10:18:45;;;;;;;1.75;1.35;;;;;;;15.71;52.41;101517.50;7398302;19;20023;-68
2022/06/02 10:21:30;;;;;;;3.95;2.33;;;;;;;15.74;50.89;101525.31;7397722;19;20022;-69
2022/06/02 10:24:33;;;;;;;2.38;1.48;;;;;;;15.71;51.69;101519.25;7396686;19;20395;-68
2022/06/02 10:27:18;;;;;;;1.88;1.45;;;;;;;15.67;50.95;101517.63;7395016;19;20023;-68
2022/06/02 10:30:33;;;;;;;1.45;1.25;;;;;;;15.64;49.87;101515.94;7396992;19;20502;-68
2022/06/02 10:33:38;;;;;;;2.05;1.27;;;;;;;15.67;49.83;101515.88;7394965;19;20445;-68
2022/06/02 10:36:37;;;;;;;1.60;1.40;;;;;;;15.75;50.29;101515.63;7395164;19;20014;-68
2022/06/02 10:39:22;;;;;;;1.98;1.17;;;;;;;15.79;47.61;101506.69;7394605;19;20025;-68
2022/06/02 10:42:11;;;;;;;2.83;1.40;;;;;;;15.82;49.10;101518.97;7396658;19;20010;-68
2022/06/02 10:45:10;;;;;;;1.38;1.20;;;;;;;15.76;48.52;101518.22;7394921;19;20076;-69
2022/06/02 10:48:11;;;;;;;1.55;1.00;;;;;;;15.75;50.89;101516.47;7395334;19;20014;-69
2022/06/02 10:51:06;;;;;;;1.40;1.20;;;;;;;15.78;48.07;101512.88;7394839;19;20014;-68
2022/06/02 10:54:19;;;;;;;1.75;1.30;;;;;;;15.86;48.56;101512.66;7395719;19;20031;-69
2022/06/02 10:57:18;;;;;;;2.10;1.20;;;;;;;15.98;50.58;101503.47;7392411;19;20359;-69
2022/06/02 11:00:08;;;;;;;4.75;1.50;;;;;;;16.18;49.22;101508.97;7394473;19;20014;-68
2022/06/02 11:03:29;;;;;;;1.85;1.27;;;;;;;16.37;45.34;101503.09;7394419;19;20014;-68
2022/06/02 11:06:55;;;;;;;8.57;1.88;;;;;;;16.57;46.89;101503.25;7393267;19;20022;-68
2022/06/02 11:10:01;;;;;;;1.58;1.38;;;;;;;16.76;46.04;101508.75;7394668;19;20043;-68
2022/06/02 11:12:56;;;;;;;3.00;1.35;;;;;;;16.88;47.88;101506.59;7395486;19;20103;-68
2022/06/02 11:15:53;;;;;;;1.33;1.23;;;;;;;16.88;46.19;101517.19;7394205;19;20014;-69
2022/06/02 11:19:04;;;;;;;1.83;1.40;;;;;;;16.81;46.23;101515.69;7393435;19;20031;-68
2022/06/02 11:21:54;;;;;;;2.08;1.40;;;;;;;16.83;45.99;101513.84;7394850;19;20039;-69
2022/06/02 11:25:03;;;;;;;2.88;1.20;;;;;;;16.94;44.97;101527.63;7393653;19;20031;-69
2022/06/02 11:28:02;;;;;;;1.98;1.40;;;;;;;17.06;46.74;101502.44;7391997;19;20036;-68
2022/06/02 11:31:05;;;;;;;5.95;1.60;;;;;;;17.21;42.40;101506.31;7391001;19;20014;-68
2022/06/02 11:34:03;;;;;;;2.10;1.10;;;;;;;17.41;43.43;101508.22;7392794;19;20022;-69
2022/06/02 11:37:01;;;;;;;2.38;1.08;;;;;;;17.59;43.04;101503.97;7392526;19;20027;-69
2022/06/02 11:39:50;;;;;;;8.88;1.85;;;;;;;17.68;42.93;101506.28;7394779;19;20027;-70
2022/06/02 11:42:36;;;;;;;1.92;0.80;;;;;;;17.78;39.50;101524.47;7394487;19;20019;-69
2022/06/02 11:45:14;;;;;;;1.17;0.70;;;;;;;17.84;41.42;101503.00;7393848;19;20392;-69
2022/06/02 11:48:07;;;;;;;2.22;0.80;;;;;;;17.97;41.15;101485.69;7392415;19;20014;-68
2022/06/02 11:51:17;;;;;;;2.55;1.63;;;;;;;18.28;41.05;101480.91;7394684;19;20015;-67
2022/06/02 11:53:59;;;;;;;1.52;1.10;;;;;;;18.56;39.13;101504.47;7392663;19;20399;-67
2022/06/02 11:56:44;;;;;;;2.65;1.45;;;;;;;18.76;38.77;101489.47;7392028;19;20042;-68
2022/06/02 11:59:36;;;;;;;;;;;;;;;18.89;38.60;101490.63;7396317;19;20415;-68
2022/06/02 12:02:21;;;;;;;2.83;1.05;;;;;;;19.19;39.63;101488.41;7394921;19;19932;-68
2022/06/02 12:05:25;;;;;;;2.95;1.23;;;;;;;19.42;39.02;101493.59;7394773;19;20035;-68
2022/06/02 12:08:44;;;;;;;2.53;0.98;;;;;;;19.44;37.02;101497.91;7392352;19;20026;-68
2022/06/02 12:11:36;;;;;;;1.80;0.80;;;;;;;19.47;36.68;101502.22;7388986;19;20485;-69
2022/06/02 12:14:34;;;;;;;3.03;0.98;;;;;;;19.49;37.38;101485.25;7393519;19;20011;-68
2022/06/02 12:17:33;;;;;;;1.25;1.00;;;;;;;19.59;37.48;101492.78;7392585;19;20108;-70
2022/06/02 12:20:26;;;;;;;1.00;0.90;;;;;;;19.72;36.10;101490.41;7391890;19;20015;-69
2022/06/02 12:23:20;;;;;;;3.20;1.02;;;;;;;19.78;36.76;101487.47;7393785;19;20063;-69
2022/06/02 12:26:02;;;;;;;1.48;1.10;;;;;;;19.81;35.34;101490.81;7391180;19;20031;-69
2022/06/02 12:28:55;;;;;;;2.08;1.20;;;;;;;19.88;35.91;101494.09;7393228;19;20382;-68
2022/06/02 12:31:49;;;;;;;3.33;1.10;;;;;;;19.90;36.70;101499.31;7392623;19;20032;-69
2022/06/02 12:34:37;;;;;;;1.38;1.02;;;;;;;19.75;36.10;101511.53;7393012;19;20015;-66
2022/06/02 12:37:30;;;;;;;1.35;0.98;;;;;;;19.71;35.76;101494.84;7390626;19;20014;-68
2022/06/02 12:40:13;;;;;;;3.00;1.10;;;;;;;19.64;35.72;101509.41;7393153;19;20019;-68
2022/06/02 12:43:18;;;;;;;3.50;1.30;;;;;;;19.56;35.58;101499.13;7396690;19;20461;-69
2022/06/02 12:45:56;;;;;;;3.30;1.10;;;;;;;19.55;37.47;101486.75;7398168;19;20015;-68
2022/06/02 12:49:04;;;;;;;2.67;0.82;;;;;;;19.67;37.39;101487.97;7400405;19;20035;-69
2022/06/02 12:51:59;;;;;;;1.65;1.00;;;;;;;19.82;36.84;101491.69;7397740;19;20022;-68
2022/06/02 12:55:07;;;;;;;3.55;1.00;;;;;;;19.75;35.13;101490.25;7395688;19;20027;-69
2022/06/02 12:58:14;;;;;;;1.95;1.38;;;;;;;19.75;35.12;101490.25;7399881;19;20018;-69
2022/06/02 13:01:20;;;;;;;2.20;1.27;;;;;;;19.85;35.71;101486.22;7396241;19;20046;-69